createdAt,value
2019-01-19T00:01:06.200Z,-2.60
2019-01-19T00:04:23.211Z,-2.60
2019-01-19T00:07:23.061Z,-2.60
2019-01-19T00:10:14.468Z,-2.60
2019-01-19T00:13:27.408Z,-2.60
2019-01-19T00:16:02.981Z,-2.70
2019-01-19T00:19:20.700Z,-2.70
2019-01-19T00:22:25.857Z,-2.70
2019-01-19T00:25:29.000Z,-2.70
2019-01-19T00:28:18.283Z,-2.80
2019-01-19T00:31:10.016Z,-2.80
2019-01-19T00:34:11.588Z,-2.90
2019-01-19T00:37:04.524Z,-2.90
2019-01-19T00:40:01.029Z,-3.00
2019-01-19T00:43:01.947Z,-3.00
2019-01-19T00:46:01.144Z,-3.00
2019-01-19T00:49:10.188Z,-3.00
2019-01-19T00:52:12.090Z,-3.00
2019-01-19T00:55:20.624Z,-2.90
2019-01-19T00:58:19.276Z,-2.90
2019-01-19T01:00:58.592Z,-2.90
2019-01-19T01:03:38.486Z,-2.80
2019-01-19T01:06:29.933Z,-2.80
2019-01-19T01:09:47.197Z,-2.80
2019-01-19T01:12:45.020Z,-2.70
2019-01-19T01:15:46.989Z,-2.70
2019-01-19T01:18:41.473Z,-2.70
2019-01-19T01:21:43.485Z,-2.70
2019-01-19T01:24:32.240Z,-2.70
2019-01-19T01:27:58.775Z,-2.70
2019-01-19T01:30:59.514Z,-2.70
2019-01-19T01:34:15.622Z,-2.80
2019-01-19T01:37:20.889Z,-2.80
2019-01-19T01:40:22.115Z,-2.90
2019-01-19T01:43:12.608Z,-3.00
2019-01-19T01:46:21.411Z,-3.00
2019-01-19T01:49:19.061Z,-3.00
2019-01-19T01:52:15.794Z,-3.00
2019-01-19T01:55:15.870Z,-3.00
2019-01-19T01:58:00.208Z,-3.10
2019-01-19T02:01:13.520Z,-3.20
2019-01-19T02:04:30.428Z,-3.30
2019-01-19T02:07:36.852Z,-3.40
2019-01-19T02:10:37.077Z,-3.50
2019-01-19T02:13:47.210Z,-3.60
2019-01-19T02:17:05.948Z,-3.60
2019-01-19T02:20:27.268Z,-3.50
2019-01-19T02:23:34.108Z,-3.50
2019-01-19T02:26:37.224Z,-3.50
2019-01-19T02:29:54.749Z,-3.50
2019-01-19T02:32:48.888Z,-3.50
2019-01-19T02:35:48.297Z,-3.60
2019-01-19T02:38:40.680Z,-3.60
2019-01-19T02:41:54.128Z,-3.80
2019-01-19T02:44:53.472Z,-3.70
2019-01-19T02:47:37.613Z,-3.80
2019-01-19T02:50:29.012Z,-3.80
2019-01-19T02:53:22.990Z,-3.80
2019-01-19T02:56:18.084Z,-3.80
2019-01-19T02:59:11.513Z,-3.80
2019-01-19T03:02:14.641Z,-3.70
2019-01-19T03:04:59.139Z,-3.70
2019-01-19T03:08:00.983Z,-3.70
2019-01-19T03:10:46.577Z,-3.70
2019-01-19T03:13:46.505Z,-3.60
2019-01-19T03:16:41.582Z,-3.70
2019-01-19T03:19:49.141Z,-3.70
2019-01-19T03:22:48.762Z,-3.70
2019-01-19T03:25:27.093Z,-3.90
2019-01-19T03:28:36.875Z,-4.00
2019-01-19T03:31:40.354Z,-4.10
2019-01-19T03:34:48.538Z,-4.10
2019-01-19T03:37:53.453Z,-4.30
2019-01-19T03:40:39.360Z,-4.40
2019-01-19T03:44:14.254Z,-4.60
2019-01-19T03:47:22.454Z,-4.70
2019-01-19T03:51:03.700Z,-4.80
2019-01-19T03:53:52.000Z,-4.90
2019-01-19T03:57:08.444Z,-5.00
2019-01-19T03:59:59.100Z,-5.10
2019-01-19T04:02:59.730Z,-5.10
2019-01-19T04:06:00.772Z,-5.30
2019-01-19T04:09:18.024Z,-5.40
2019-01-19T04:12:27.698Z,-5.30
2019-01-19T04:15:36.957Z,-5.50
2019-01-19T04:18:19.209Z,-5.50
2019-01-19T04:21:08.097Z,-5.50
2019-01-19T04:23:39.161Z,-5.50
2019-01-19T04:26:17.825Z,-5.50
2019-01-19T04:28:47.988Z,-5.40
2019-01-19T04:31:17.817Z,-5.60
2019-01-19T04:33:47.988Z,-5.60
2019-01-19T04:36:21.650Z,-5.70
2019-01-19T04:38:50.221Z,-5.70
2019-01-19T04:41:20.385Z,-5.80
2019-01-19T04:43:50.205Z,-5.70
2019-01-19T04:46:20.116Z,-5.80
2019-01-19T04:48:50.719Z,-5.80
2019-01-19T04:51:20.547Z,-5.90
2019-01-19T04:53:50.554Z,-5.90
2019-01-19T04:56:20.893Z,-6.00
2019-01-19T04:58:50.669Z,-6.10
2019-01-19T05:01:20.524Z,-6.00
2019-01-19T05:03:50.289Z,-6.00
2019-01-19T05:06:20.449Z,-5.90
2019-01-19T05:08:50.309Z,-5.90
2019-01-19T05:11:20.222Z,-5.90
2019-01-19T05:13:50.149Z,-5.90
2019-01-19T05:16:20.176Z,-5.90
2019-01-19T05:18:50.021Z,-5.90
2019-01-19T05:21:20.304Z,-5.90
2019-01-19T05:23:51.444Z,-5.90
2019-01-19T05:26:21.366Z,-5.80
2019-01-19T05:28:51.178Z,-5.90
2019-01-19T05:31:21.088Z,-6.00
2019-01-19T05:33:50.926Z,-6.00
2019-01-19T05:36:20.868Z,-5.90
2019-01-19T05:38:51.193Z,-6.00
2019-01-19T05:41:21.173Z,-5.90
2019-01-19T05:43:51.168Z,-6.00
2019-01-19T05:46:21.482Z,-6.00
2019-01-19T05:48:51.668Z,-5.90
2019-01-19T05:51:21.740Z,-6.00
2019-01-19T05:53:51.813Z,-6.00
2019-01-19T05:56:21.910Z,-6.10
2019-01-19T05:58:51.737Z,-6.10
2019-01-19T06:01:22.743Z,-6.20
2019-01-19T06:03:52.649Z,-6.30
2019-01-19T06:06:23.022Z,-6.20
2019-01-19T06:08:52.985Z,-6.30
2019-01-19T06:11:22.908Z,-6.30
2019-01-19T06:13:52.737Z,-6.40
2019-01-19T06:16:22.853Z,-6.40
2019-01-19T06:18:53.146Z,-6.30
2019-01-19T06:21:26.941Z,-6.40
2019-01-19T06:23:56.786Z,-6.40
2019-01-19T06:26:26.613Z,-6.50
2019-01-19T06:28:56.526Z,-6.50
2019-01-19T06:31:26.492Z,-6.50
2019-01-19T06:33:56.327Z,-6.50
2019-01-19T06:36:26.152Z,-6.40
2019-01-19T06:38:55.909Z,-6.40
2019-01-19T06:41:25.813Z,-6.40
2019-01-19T06:43:55.985Z,-6.50
2019-01-19T06:46:25.815Z,-6.50
2019-01-19T06:48:55.944Z,-6.50
2019-01-19T06:51:25.693Z,-6.50
2019-01-19T06:54:01.513Z,-6.50
2019-01-19T06:56:28.769Z,-6.50
2019-01-19T06:58:58.528Z,-6.50
2019-01-19T07:01:28.420Z,-6.50
2019-01-19T07:03:58.263Z,-6.40
2019-01-19T07:06:28.092Z,-6.40
2019-01-19T07:08:57.844Z,-6.40
2019-01-19T07:11:27.681Z,-6.40
2019-01-19T07:13:59.088Z,-6.40
2019-01-19T07:16:29.020Z,-6.30
2019-01-19T07:18:58.789Z,-6.30
2019-01-19T07:21:28.681Z,-6.30
2019-01-19T07:23:58.594Z,-6.20
2019-01-19T07:26:28.484Z,-6.10
2019-01-19T07:28:58.412Z,-6.00
2019-01-19T07:31:28.333Z,-6.00
2019-01-19T07:33:58.240Z,-5.90
2019-01-19T07:36:28.421Z,-5.80
2019-01-19T07:38:58.348Z,-5.80
2019-01-19T07:41:28.212Z,-5.60
2019-01-19T07:43:58.222Z,-5.40
2019-01-19T07:46:28.642Z,-5.20
2019-01-19T07:48:58.660Z,-5.00
2019-01-19T07:51:28.576Z,-4.80
2019-01-19T07:53:58.513Z,-4.50
2019-01-19T07:56:28.344Z,-4.00
2019-01-19T07:58:58.253Z,-3.40
2019-01-19T08:01:28.096Z,-3.10
2019-01-19T08:03:58.158Z,-2.40
2019-01-19T08:06:28.084Z,-2.10
2019-01-19T08:08:59.695Z,-2.10
2019-01-19T08:11:29.512Z,-2.00
2019-01-19T08:13:59.416Z,-1.60
2019-01-19T08:16:29.361Z,-1.20
2019-01-19T08:18:59.200Z,-0.80
2019-01-19T08:21:29.204Z,0.30
2019-01-19T08:23:59.121Z,0.10
2019-01-19T08:26:29.017Z,0.90
2019-01-19T08:28:59.237Z,0.60
2019-01-19T08:31:29.143Z,1.10
2019-01-19T08:33:58.966Z,2.20
2019-01-19T08:36:28.952Z,1.40
2019-01-19T08:38:58.685Z,1.20
2019-01-19T08:41:28.521Z,1.20
2019-01-19T08:44:01.132Z,1.20
2019-01-19T08:46:31.036Z,1.70
2019-01-19T08:49:01.092Z,2.00
2019-01-19T08:51:30.996Z,3.10
2019-01-19T08:54:00.848Z,3.20
2019-01-19T08:56:30.684Z,2.30
2019-01-19T08:59:00.760Z,0.90
2019-01-19T09:01:30.931Z,1.90
2019-01-19T09:04:00.673Z,1.20
2019-01-19T09:06:31.558Z,1.30
2019-01-19T09:09:01.397Z,1.10
2019-01-19T09:11:31.577Z,1.80
2019-01-19T09:14:01.409Z,2.30
2019-01-19T09:16:31.313Z,1.70
2019-01-19T09:19:01.235Z,2.50
2019-01-19T09:21:31.129Z,2.50
2019-01-19T09:24:02.552Z,2.00
2019-01-19T09:26:32.448Z,2.50
2019-01-19T09:29:02.309Z,4.00
2019-01-19T09:31:32.117Z,4.90
2019-01-19T09:34:01.960Z,5.60
2019-01-19T09:36:31.848Z,4.80
2019-01-19T09:39:01.678Z,5.60
2019-01-19T09:41:32.969Z,4.20
2019-01-19T09:44:02.861Z,4.20
2019-01-19T09:46:32.752Z,3.20
2019-01-19T09:49:02.652Z,3.90
2019-01-19T09:51:32.472Z,5.60
2019-01-19T09:54:02.374Z,6.60
2019-01-19T09:56:32.190Z,5.20
2019-01-19T09:59:02.017Z,4.30
2019-01-19T10:01:32.813Z,4.10
2019-01-19T10:04:02.713Z,4.60
2019-01-19T10:06:32.608Z,5.10
2019-01-19T10:09:02.581Z,4.30
2019-01-19T10:11:32.719Z,4.90
2019-01-19T10:14:02.613Z,5.80
2019-01-19T10:16:32.425Z,6.50
2019-01-19T10:19:02.277Z,6.40
2019-01-19T10:21:32.706Z,6.70
2019-01-19T10:24:02.725Z,4.10
2019-01-19T10:26:32.727Z,3.20
2019-01-19T10:29:02.728Z,2.20
2019-01-19T10:31:32.737Z,3.20
2019-01-19T10:34:02.738Z,4.00
2019-01-19T10:36:32.739Z,4.40
2019-01-19T10:39:02.719Z,3.20
2019-01-19T10:41:32.616Z,3.40
2019-01-19T10:44:02.525Z,3.30
2019-01-19T10:46:32.422Z,3.50
2019-01-19T10:49:02.254Z,3.90
2019-01-19T10:51:32.168Z,3.90
2019-01-19T10:54:02.258Z,5.00
2019-01-19T10:56:32.132Z,5.80
2019-01-19T10:59:01.968Z,7.70
2019-01-19T11:01:31.728Z,5.40
2019-01-19T11:04:01.873Z,5.30
2019-01-19T11:06:31.965Z,4.60
2019-01-19T11:09:02.333Z,5.60
2019-01-19T11:11:33.488Z,6.70
2019-01-19T11:14:03.402Z,6.10
2019-01-19T11:16:33.357Z,5.70
2019-01-19T11:19:03.668Z,5.60
2019-01-19T11:21:33.489Z,6.70
2019-01-19T11:24:03.432Z,7.40
2019-01-19T11:26:33.189Z,7.10
2019-01-19T11:29:03.073Z,5.50
2019-01-19T11:31:33.293Z,6.60
2019-01-19T11:34:03.106Z,7.00
2019-01-19T11:36:33.298Z,7.20
2019-01-19T11:39:05.213Z,6.10
2019-01-19T11:41:36.784Z,5.40
2019-01-19T11:44:07.238Z,5.70
2019-01-19T11:46:37.485Z,4.80
2019-01-19T11:49:07.789Z,5.30
2019-01-19T11:51:38.133Z,3.90
2019-01-19T11:54:11.705Z,3.60
2019-01-19T11:56:41.964Z,3.60
2019-01-19T11:59:12.156Z,3.80
2019-01-19T12:01:43.150Z,4.40
2019-01-19T12:04:17.837Z,4.30
2019-01-19T12:06:52.618Z,3.60
2019-01-19T12:09:22.908Z,5.80
2019-01-19T12:11:53.441Z,4.90
2019-01-19T12:14:23.904Z,6.50
2019-01-19T12:16:54.753Z,6.50
2019-01-19T12:19:25.589Z,6.90
2019-01-19T12:21:56.734Z,5.60
2019-01-19T12:24:27.514Z,5.80
2019-01-19T12:26:57.847Z,6.70
2019-01-19T12:29:28.456Z,6.70
2019-01-19T12:32:00.473Z,6.10
2019-01-19T12:34:31.025Z,5.10
2019-01-19T12:37:01.285Z,4.50
2019-01-19T12:39:31.756Z,3.70
2019-01-19T12:42:02.204Z,3.90
2019-01-19T12:44:32.680Z,5.90
2019-01-19T12:47:03.027Z,7.40
2019-01-19T12:49:33.511Z,8.80
2019-01-19T12:52:04.241Z,10.40
2019-01-19T12:54:35.181Z,11.40
2019-01-19T12:57:05.711Z,10.70
2019-01-19T12:59:40.455Z,9.90
2019-01-19T13:02:12.609Z,7.80
2019-01-19T13:04:46.460Z,6.80
2019-01-19T13:07:22.341Z,7.00
2019-01-19T13:10:00.009Z,5.20
2019-01-19T13:12:51.559Z,5.90
2019-01-19T13:16:01.487Z,6.30
2019-01-19T13:18:56.834Z,5.40
2019-01-19T13:22:09.796Z,6.00
2019-01-19T13:25:05.885Z,4.40
2019-01-19T13:28:16.925Z,8.20
2019-01-19T13:31:10.858Z,9.00
2019-01-19T13:34:11.222Z,8.80
2019-01-19T13:37:15.818Z,6.20
2019-01-19T13:40:16.084Z,6.60
2019-01-19T13:43:32.641Z,4.50
2019-01-19T13:46:24.785Z,4.40
2019-01-19T13:49:34.458Z,4.50
2019-01-19T13:52:55.792Z,4.40
2019-01-19T13:56:05.559Z,6.60
2019-01-19T13:58:52.945Z,5.70
2019-01-19T14:02:19.367Z,4.60
2019-01-19T14:05:25.652Z,5.30
2019-01-19T14:08:40.204Z,4.10
2019-01-19T14:11:54.358Z,3.10
2019-01-19T14:15:10.963Z,3.20
2019-01-19T14:18:28.821Z,2.00
2019-01-19T14:21:25.949Z,1.20
2019-01-19T14:24:32.835Z,2.20
2019-01-19T14:27:38.562Z,2.90
2019-01-19T14:31:01.784Z,2.50
2019-01-19T14:34:06.375Z,3.40
2019-01-19T14:37:05.125Z,3.60
2019-01-19T14:40:22.131Z,3.60
2019-01-19T14:43:22.908Z,3.30
2019-01-19T14:46:37.143Z,3.10
2019-01-19T14:49:46.298Z,2.80
2019-01-19T14:52:29.379Z,2.30
2019-01-19T14:55:36.414Z,1.40
2019-01-19T14:58:48.148Z,0.80
2019-01-19T15:01:59.254Z,0.30
2019-01-19T15:04:51.514Z,0.20
2019-01-19T15:07:48.560Z,0.50
2019-01-19T15:10:47.431Z,0.50
2019-01-19T15:13:49.704Z,0.30
2019-01-19T15:17:09.748Z,0.50
2019-01-19T15:20:39.124Z,0.40
2019-01-19T15:23:45.719Z,0.80
2019-01-19T15:26:52.590Z,0.60
2019-01-19T15:29:40.817Z,0.30
2019-01-19T15:32:33.871Z,-0.10
2019-01-19T15:35:33.936Z,-0.20
2019-01-19T15:38:40.035Z,-0.50
2019-01-19T15:42:04.165Z,-0.90
2019-01-19T15:45:24.482Z,-1.10
2019-01-19T15:48:21.155Z,-1.20
2019-01-19T15:51:23.764Z,-1.40
2019-01-19T15:54:10.561Z,-1.50
2019-01-19T15:57:24.849Z,-1.60
2019-01-19T16:00:45.270Z,-1.70
2019-01-19T16:03:58.452Z,-1.90
2019-01-19T16:06:54.442Z,-2.20
2019-01-19T16:10:10.053Z,-2.30
2019-01-19T16:13:28.652Z,-2.40
2019-01-19T16:16:39.823Z,-2.60
2019-01-19T16:20:05.955Z,-2.50
2019-01-19T16:23:38.151Z,-2.50
2019-01-19T16:26:56.891Z,-2.50
2019-01-19T16:30:10.956Z,-2.80
2019-01-19T16:33:19.102Z,-2.80
2019-01-19T16:36:33.981Z,-2.90
2019-01-19T16:39:32.767Z,-2.90
2019-01-19T16:42:47.452Z,-2.90
2019-01-19T16:46:10.412Z,-3.00
2019-01-19T16:49:20.108Z,-3.00
2019-01-19T16:52:47.288Z,-3.00
2019-01-19T16:55:43.477Z,-3.00
2019-01-19T16:58:48.598Z,-3.10
2019-01-19T17:01:40.850Z,-3.20
2019-01-19T17:04:45.968Z,-3.30
2019-01-19T17:08:08.707Z,-3.50
2019-01-19T17:11:14.578Z,-3.50
2019-01-19T17:14:28.680Z,-3.50
2019-01-19T17:17:45.571Z,-3.70
2019-01-19T17:20:26.491Z,-3.70
2019-01-19T17:23:31.147Z,-3.80
2019-01-19T17:26:34.483Z,-3.90
2019-01-19T17:29:37.531Z,-3.80
2019-01-19T17:32:27.123Z,-3.80
2019-01-19T17:35:39.735Z,-3.90
2019-01-19T17:38:28.137Z,-3.90
2019-01-19T17:41:32.366Z,-3.90
2019-01-19T17:44:30.842Z,-4.00
2019-01-19T17:47:32.060Z,-4.10
2019-01-19T17:50:47.911Z,-4.10
2019-01-19T17:53:59.284Z,-4.20
2019-01-19T17:56:54.817Z,-4.20
2019-01-19T18:00:20.664Z,-4.20
2019-01-19T18:03:21.928Z,-4.20
2019-01-19T18:06:23.658Z,-4.30
2019-01-19T18:09:49.750Z,-4.40
2019-01-19T18:13:09.680Z,-4.40
2019-01-19T18:16:04.755Z,-4.30
2019-01-19T18:19:05.545Z,-4.40
2019-01-19T18:22:19.641Z,-4.30
2019-01-19T18:25:03.980Z,-4.30
2019-01-19T18:28:32.816Z,-4.30
2019-01-19T18:31:38.800Z,-4.40
2019-01-19T18:34:59.052Z,-4.40
2019-01-19T18:38:12.933Z,-4.50
2019-01-19T18:41:35.984Z,-4.60
2019-01-19T18:45:05.590Z,-4.60
2019-01-19T18:48:34.314Z,-4.60
2019-01-19T18:51:36.804Z,-4.70
2019-01-19T18:54:38.169Z,-4.70
2019-01-19T18:57:38.912Z,-4.80
2019-01-19T19:00:41.395Z,-4.70
2019-01-19T19:03:22.321Z,-4.80
2019-01-19T19:06:29.124Z,-4.70
2019-01-19T19:09:22.819Z,-4.70
2019-01-19T19:12:33.917Z,-4.80
2019-01-19T19:15:47.782Z,-4.80
2019-01-19T19:18:52.329Z,-4.90
2019-01-19T19:22:22.049Z,-4.90
2019-01-19T19:25:24.354Z,-5.00
2019-01-19T19:28:25.342Z,-5.00
2019-01-19T19:31:23.507Z,-5.00
2019-01-19T19:34:36.132Z,-4.90
2019-01-19T19:37:56.097Z,-5.00
2019-01-19T19:40:57.896Z,-5.00
2019-01-19T19:43:43.125Z,-5.10
2019-01-19T19:46:23.717Z,-5.00
2019-01-19T19:49:25.024Z,-5.10
2019-01-19T19:52:00.603Z,-5.20
2019-01-19T19:54:31.632Z,-5.30
2019-01-19T19:57:01.958Z,-5.30
2019-01-19T19:59:31.804Z,-5.30
2019-01-19T20:02:02.037Z,-5.30
2019-01-19T20:04:32.098Z,-5.40
2019-01-19T20:07:01.994Z,-5.30
2019-01-19T20:09:32.188Z,-5.40
2019-01-19T20:12:11.097Z,-5.40
2019-01-19T20:14:41.032Z,-5.30
2019-01-19T20:17:10.944Z,-5.40
2019-01-19T20:19:40.789Z,-5.40
2019-01-19T20:22:10.708Z,-5.40
2019-01-19T20:24:40.648Z,-5.40
2019-01-19T20:27:10.488Z,-5.50
2019-01-19T20:29:40.400Z,-5.50
2019-01-19T20:32:10.644Z,-5.50
2019-01-19T20:34:41.460Z,-5.60
2019-01-19T20:37:11.285Z,-5.50
2019-01-19T20:39:41.110Z,-5.60
2019-01-19T20:42:11.072Z,-5.70
2019-01-19T20:44:40.847Z,-5.70
2019-01-19T20:47:11.009Z,-5.70
2019-01-19T20:49:40.849Z,-5.70
2019-01-19T20:52:10.683Z,-5.70
2019-01-19T20:54:40.750Z,-5.70
2019-01-19T20:57:10.920Z,-5.80
2019-01-19T20:59:40.952Z,-5.90
2019-01-19T21:02:10.929Z,-5.90
2019-01-19T21:04:41.016Z,-5.90
2019-01-19T21:07:10.880Z,-5.90
2019-01-19T21:09:40.726Z,-5.90
2019-01-19T21:12:10.708Z,-5.90
2019-01-19T21:14:40.573Z,-6.00
2019-01-19T21:17:10.443Z,-6.00
2019-01-19T21:19:40.448Z,-6.00
2019-01-19T21:22:10.362Z,-6.00
2019-01-19T21:24:40.209Z,-6.00
2019-01-19T21:27:10.047Z,-6.10
2019-01-19T21:29:39.916Z,-6.10
2019-01-19T21:32:09.848Z,-6.10
2019-01-19T21:34:39.782Z,-6.10
2019-01-19T21:37:09.592Z,-6.10
2019-01-19T21:39:39.400Z,-6.20
2019-01-19T21:42:09.320Z,-6.20
2019-01-19T21:44:39.193Z,-6.30
2019-01-19T21:47:10.176Z,-6.30
2019-01-19T21:49:40.497Z,-6.30
2019-01-19T21:52:10.551Z,-6.30
2019-01-19T21:54:40.777Z,-6.40
2019-01-19T21:57:10.986Z,-6.40
2019-01-19T21:59:40.852Z,-6.40
2019-01-19T22:02:10.780Z,-6.30
2019-01-19T22:04:40.667Z,-6.40
2019-01-19T22:07:10.829Z,-6.40
2019-01-19T22:09:40.669Z,-6.30
2019-01-19T22:12:10.515Z,-6.40
2019-01-19T22:14:40.336Z,-6.50
2019-01-19T22:17:10.253Z,-6.40
2019-01-19T22:19:40.073Z,-6.40
2019-01-19T22:22:10.237Z,-6.50
2019-01-19T22:24:40.139Z,-6.60
2019-01-19T22:27:11.588Z,-6.70
2019-01-19T22:29:41.402Z,-6.60
2019-01-19T22:32:11.168Z,-6.50
2019-01-19T22:34:40.992Z,-6.50
2019-01-19T22:37:10.890Z,-6.50
2019-01-19T22:39:40.720Z,-6.60
2019-01-19T22:42:10.484Z,-6.60
2019-01-19T22:44:40.428Z,-6.60
2019-01-19T22:47:10.573Z,-6.60
2019-01-19T22:49:40.710Z,-6.70
2019-01-19T22:52:10.972Z,-6.60
2019-01-19T22:54:41.289Z,-6.70
2019-01-19T22:57:11.293Z,-6.80
2019-01-19T22:59:41.209Z,-6.80
2019-01-19T23:02:12.868Z,-6.80
2019-01-19T23:04:43.318Z,-6.80
2019-01-19T23:07:13.709Z,-6.80
2019-01-19T23:09:44.649Z,-6.90
2019-01-19T23:12:14.837Z,-7.00
2019-01-19T23:14:44.821Z,-6.90
2019-01-19T23:17:14.894Z,-6.90
2019-01-19T23:19:45.079Z,-6.90
2019-01-19T23:22:15.615Z,-6.90
2019-01-19T23:24:45.785Z,-7.00
2019-01-19T23:27:15.967Z,-6.90
2019-01-19T23:29:45.865Z,-6.90
2019-01-19T23:32:15.797Z,-7.00
2019-01-19T23:34:45.691Z,-7.00
2019-01-19T23:37:15.572Z,-7.00
2019-01-19T23:39:45.398Z,-7.00
2019-01-19T23:42:15.393Z,-7.00
2019-01-19T23:44:45.464Z,-7.00
2019-01-19T23:47:15.845Z,-7.00
2019-01-19T23:49:45.695Z,-6.90
2019-01-19T23:52:15.882Z,-7.00
2019-01-19T23:54:45.692Z,-7.00
2019-01-19T23:57:15.456Z,-7.00
2019-01-19T23:59:45.408Z,-7.10
